Accueil
METAR-TAF:

METAR-TAF

Aéroports :

Aérodrome de Katima Mulilo-Mpacha

Katima Mulilo, Namibie

latitude: 17-38-04S, longitude: 024-10-36E, altitude: 985 m

Observation

Le bulletin a été fait il y a 21 minutes, à 18:00 UTC
Vent calme
Température 16°C
Humidité 42%
Pression 1023 hPa

METAR: FYKM 271800Z AUTO 00000KT //// // ////// 16/03 Q1023

Heure: 20:21 (18:21 UTC)

Prévision

Le bulletin a été fait il y a 1 heure et 21 minutes, à 17:00 UTC
Prévision valable du 27 à 18 UTC au 28 à 03 UTC
Vent kt de nord
Visibilité 10 km ou plus
pas de nuages en-dessous de 1500 mètres et pas de cumulonimbus.

TAF: FYKM 271700Z 2718/2803 00000KT CAVOK

Observations et prévisions météorologiques de plus de 4000 aéroports (messages METAR et TAF).

Les stations disponibles sont représentées par des disques jaunes et rouges sur la carte.

Passer la souris dessus pour voir le nom de la station.

Cliquer dessus pour voir les observations et prévisions météorologiques.

Pour changer de carte: cliquez sur les boutons verts avec une croix noire pour zoomer, sur le bouton vert avec un tiret pour effectuer un zoom arrière, ou sur les flèches vertes pour les cartes adjacentes.


METAR-TAF: